Airfield :
LOGIN :

Register | Disclaimer

   EN    FR    IT 

 










Legend :    VFR   Marginal VFR   IFR   Intensive IFR   Very Intensive IFR
Visi :
Ceiling :
>= 8 km
>= 3000ft
5 to 8 km
1000 to 3000 ft
1500m to 5 km
500 to 1000 ft
800 to 1500m
200 to 500 ft
< 800m
< 200 ft
Symbols :   Thunderstorms  Fog  Heavy snow  Heavy precipitations  Wind > 20 kt
SIGMETs :     Misc.  Thunderstorms  Icing  Turbulence  Mountain Waves  Volcanic Ashes







- Airport Elevation : 194 ft


EBCV - Chièvres

CURRENT METAR :
  • 160825Z AUTO 26007KT 9999 FEW018/// SCT022/// OVC036/// 02/02 Q1013 WHT

EXPIRED METARs :
  • 160755Z AUTO 24006KT 9999 BKN015/// BKN044/// BKN053/// 02/02 Q1012 WHT
  • 160725Z AUTO 30008KT 9000 -RA OVC018/// 03/02 Q1012 WHT
  • 160717Z AUTO 31008KT 9999 -RA BKN018/// 03/02 Q1011 WHT
  • 160705Z AUTO 32010KT 4900 RA BKN022/// 03/02 Q1011 GRN
  • 160655Z AUTO 30009KT 9999 -RA BKN027/// 03/02 Q1011 BLU
  • 160625Z AUTO 26008KT 9999 FEW046/// SCT055/// 02/01 Q1010 BLU
  • 160555Z AUTO 24008KT 9999 FEW027/// BKN046/// 02/01 Q1010 BLU

TAF TAF EBCV
Valid from the 16 at 07:00 until the 16 at 16:00 UTC


160541Z 1607/1616 30005KT 9999 SCT025
TEMPO 1607/1616 BKN020
TEMPO 1609/1616 30007G17KT 5000 -SHRA SCT013TCU BKN015
No reported NOTAMs for that airfield.



MET'MAP, your aeronautical weather chart ! - Copyright ORBIFLY December 2007 - Disclaimer

ORBIFLY MET'MAP TEAM :

Programming & Development : Alexandra Zaïnal
Concept & Development : Baudouin d'Aumeries
Co-Development & Prog : Marc-Olivier Méhu
Technical & hardware support : Manuel Goepfert

Contact : metmap@orbifly.com




SOURCES & CREDITS :

   NOAA